Latest Weather Observations for South Channel Island

IDV60801

Issued at 11:05 pm EST Friday 18 April 2014 (issued every 30 minutes, with the page automatically refreshed every 10 minutes)

About weather observations | Map of weather stations | Latest weather observations for VIC | Other Formats
Station Details ID: 086344 Name: SOUTH CHANNEL ISLAND Lat: -38.31 Lon: 144.80 Height: 9.0 m
Data from the previous 72 hours. | See also: Recent months for locations in Victoria
Date/Time
EST
Temp
°C
App
Temp
°C
Dew
Point
Rel
Hum
%
Delta-T
°C
Wind Press
QNH
hPa
Press
MSL
hPa
Rain
since 9 am
mm
Dir
 
Spd
km/h
Gust
km/h
Spd
kts
Gust
kts
18/11:00pm - - - - - SW 37 44 20 24 - - -
18/10:30pm - - - - - SW 39 46 21 25 - - -
18/10:00pm - - - - - SW 39 48 21 26 - - -
18/09:30pm - - - - - SW 41 48 22 26 - - -
18/09:00pm - - - - - SW 43 50 23 27 - - -
18/08:30pm - - - - - SW 41 48 22 26 - - -
18/08:00pm - - - - - SW 41 50 22 27 - - -
18/07:30pm - - - - - SW 43 52 23 28 - - -
18/07:00pm - - - - - WSW 44 52 24 28 - - -
18/06:30pm - - - - - WSW 39 54 21 29 - - -
18/06:00pm - - - - - WSW 32 39 17 21 - - -
18/05:30pm - - - - - WSW 35 41 19 22 - - -
18/05:00pm - - - - - SW 43 57 23 31 - - -
18/04:57pm - - - - - WSW 50 69 27 37 - - -
18/04:49pm - - - - - WSW 57 69 31 37 - - -
18/04:47pm - - - - - WSW 39 69 21 37 - - -
18/04:30pm - - - - - WSW 39 48 21 26 - - -
18/04:00pm - - - - - SW 44 54 24 29 - - -
18/03:30pm - - - - - SW 50 61 27 33 - - -
18/03:00pm - - - - - SW 46 56 25 30 - - -
18/02:30pm - - - - - WSW 32 39 17 21 - - -
18/02:00pm - - - - - SW 48 61 26 33 - - -
18/01:30pm - - - - - SW 50 57 27 31 - - -
18/01:00pm - - - - - SW 50 61 27 33 - - -
18/12:30pm - - - - - SW 48 57 26 31 - - -
18/12:00pm - - - - - SW 39 59 21 32 - - -
18/11:35am - - - - - SW 46 69 25 37 - - -
18/11:30am - - - - - SW 48 54 26 29 - - -
18/11:00am - - - - - SW 50 57 27 31 - - -
18/10:30am - - - - - WSW 43 57 23 31 - - -
18/10:18am - - - - - WSW 44 50 24 27 - - -
18/10:00am - - - - - W 52 67 28 36 - - -
18/09:56am - - - - - W 48 67 26 36 - - -
18/09:30am - - - - - WNW 37 48 20 26 - - -
18/09:00am - - - - - WNW 37 43 20 23 - - -
18/08:45am - - - - - WNW 41 52 22 28 - - -
18/08:30am - - - - - W 28 33 15 18 - - -
18/08:00am - - - - - NNW 24 30 13 16 - - -
18/07:30am - - - - - NNW 26 30 14 16 - - -
18/07:00am - - - - - NNW 28 32 15 17 - - -
18/06:30am - - - - - NNW 20 26 11 14 - - -
18/06:00am - - - - - N 17 20 9 11 - - -
18/05:30am - - - - - NNW 17 19 9 10 - - -
18/05:00am - - - - - NW 20 26 11 14 - - -
18/04:30am - - - - - WNW 26 28 14 15 - - -
18/04:00am - - - - - NW 22 26 12 14 - - -
18/03:30am - - - - - WNW 20 26 11 14 - - -
18/03:00am - - - - - WNW 22 26 12 14 - - -
18/02:30am - - - - - W 24 28 13 15 - - -
18/02:00am - - - - - WNW 26 30 14 16 - - -
18/01:30am - - - - - WNW 32 37 17 20 - - -
18/01:16am - - - - - WNW 30 33 16 18 - - -
18/01:00am - - - - - NNE 13 15 7 8 - - -
18/12:30am - - - - - NNE 7 9 4 5 - - -
18/12:00am - - - - - SE 9 9 5 5 - - -
 
Date/Time
EST
Temp
°C
App
Temp
°C
Dew
Point
Rel
Hum
%
Delta-T
°C
Wind Press
QNH
hPa
Press
MSL
hPa
Rain
since 9 am
mm
Dir
 
Spd
km/h
Gust
km/h
Spd
kts
Gust
kts
17/11:30pm - - - - - S 11 13 6 7 - - -
17/11:00pm - - - - - SSW 13 13 7 7 - - -
17/10:30pm - - - - - WSW 9 11 5 6 - - -
17/10:00pm - - - - - W 9 11 5 6 - - -
17/09:30pm - - - - - E 15 19 8 10 - - -
17/09:00pm - - - - - E 19 20 10 11 - - -
17/08:30pm - - - - - E 19 24 10 13 - - -
17/08:00pm - - - - - E 17 20 9 11 - - -
17/07:30pm - - - - - E 17 19 9 10 - - -
17/07:00pm - - - - - E 15 17 8 9 - - -
17/06:30pm - - - - - ESE 11 13 6 7 - - -
17/06:00pm - - - - - ENE 9 11 5 6 - - -
17/05:30pm - - - - - E 11 13 6 7 - - -
17/05:00pm - - - - - E 13 13 7 7 - - -
17/04:30pm - - - - - E 11 13 6 7 - - -
17/04:00pm - - - - - ENE 11 11 6 6 - - -
17/03:30pm - - - - - E 13 15 7 8 - - -
17/03:00pm - - - - - E 17 17 9 9 - - -
17/02:30pm - - - - - E 15 17 8 9 - - -
17/02:00pm - - - - - ENE 13 13 7 7 - - -
17/01:30pm - - - - - NE 13 15 7 8 - - -
17/01:00pm - - - - - NE 11 13 6 7 - - -
17/12:30pm - - - - - NNE 11 13 6 7 - - -
17/12:00pm - - - - - NNE 11 13 6 7 - - -
17/11:30am - - - - - NNE 13 13 7 7 - - -
17/11:00am - - - - - N 11 15 6 8 - - -
17/10:30am - - - - - N 11 13 6 7 - - -
17/10:00am - - - - - N 13 15 7 8 - - -
17/09:30am - - - - - N 13 15 7 8 - - -
17/09:00am - - - - - NNW 11 15 6 8 - - -
17/08:30am - - - - - N 9 11 5 6 - - -
17/08:00am - - - - - N 7 9 4 5 - - -
17/07:30am - - - - - N 7 9 4 5 - - -
17/07:00am - - - - - N 9 9 5 5 - - -
17/06:30am - - - - - NNW 7 9 4 5 - - -
17/06:00am - - - - - W 6 9 3 5 - - -
17/05:30am - - - - - WSW 9 11 5 6 - - -
17/05:00am - - - - - WSW 9 11 5 6 - - -
17/04:30am - - - - - W 9 11 5 6 - - -
17/04:00am - - - - - W 9 11 5 6 - - -
17/03:30am - - - - - WSW 9 9 5 5 - - -
17/03:00am - - - - - W 9 9 5 5 - - -
17/02:30am - - - - - W 11 11 6 6 - - -
17/02:00am - - - - - WNW 11 13 6 7 - - -
17/01:30am - - - - - WNW 11 13 6 7 - - -
17/01:00am - - - - - NNW 9 11 5 6 - - -
17/12:30am - - - - - NNW 9 13 5 7 - - -
17/12:00am - - - - - W 13 15 7 8 - - -
 
Date/Time
EST
Temp
°C
App
Temp
°C
Dew
Point
Rel
Hum
%
Delta-T
°C
Wind Press
QNH
hPa
Press
MSL
hPa
Rain
since 9 am
mm
Dir
 
Spd
km/h
Gust
km/h
Spd
kts
Gust
kts
16/11:30pm - - - - - W 11 13 6 7 - - -
16/11:00pm - - - - - NW 9 9 5 5 - - -
16/10:30pm - - - - - NNW 9 9 5 5 - - -
16/10:00pm - - - - - CALM 0 0 0 0 - - -
16/09:30pm - - - - - CALM 0 0 0 0 - - -
16/09:00pm - - - - - CALM 0 0 0 0 - - -
16/08:30pm - - - - - CALM 0 0 0 0 - - -
16/08:00pm - - - - - CALM 0 0 0 0 - - -
16/07:30pm - - - - - SSE 7 9 4 5 - - -
16/07:00pm - - - - - S 6 7 3 4 - - -
16/06:30pm - - - - - S 6 7 3 4 - - -
16/06:00pm - - - - - SSE 9 9 5 5 - - -
16/05:30pm - - - - - S 11 13 6 7 - - -
16/05:00pm - - - - - S 13 15 7 8 - - -
16/04:30pm - - - - - S 15 17 8 9 - - -
16/04:00pm - - - - - SSW 6 7 3 4 - - -
16/03:30pm - - - - - S 6 7 3 4 - - -
16/03:00pm - - - - - S 6 7 3 4 - - -
16/02:30pm - - - - - N 4 7 2 4 - - -
16/02:00pm - - - - - ENE 9 11 5 6 - - -
16/01:30pm - - - - - N 7 9 4 5 - - -
16/01:00pm - - - - - N 13 17 7 9 - - -
16/12:30pm - - - - - N 13 17 7 9 - - -
16/12:00pm - - - - - N 17 19 9 10 - - -
16/11:30am - - - - - NNE 15 20 8 11 - - -
16/11:00am - - - - - NNE 17 22 9 12 - - -
16/10:30am - - - - - NNE 20 24 11 13 - - -
16/10:00am - - - - - NE 22 28 12 15 - - -
16/09:30am - - - - - NE 26 30 14 16 - - -
16/09:00am - - - - - NE 28 32 15 17 - - -
16/08:30am - - - - - NE 26 32 14 17 - - -
16/08:00am - - - - - ENE 28 32 15 17 - - -
16/07:30am - - - - - ENE 32 35 17 19 - - -
16/07:00am - - - - - ENE 32 37 17 20 - - -
16/06:30am - - - - - ENE 33 39 18 21 - - -
16/06:00am - - - - - ENE 30 35 16 19 - - -
16/05:30am - - - - - ENE 28 33 15 18 - - -
16/05:00am - - - - - E 28 32 15 17 - - -
16/04:30am - - - - - E 32 35 17 19 - - -
16/04:00am - - - - - E 33 39 18 21 - - -
16/03:30am - - - - - E 35 41 19 22 - - -
16/03:00am - - - - - E 35 41 19 22 - - -
16/02:30am - - - - - E 37 43 20 23 - - -
16/02:00am - - - - - E 37 43 20 23 - - -
16/01:30am - - - - - E 37 44 20 24 - - -
16/01:00am - - - - - E 37 41 20 22 - - -
16/12:30am - - - - - E 33 41 18 22 - - -
16/12:00am - - - - - E 35 39 19 21 - - -
 
Date/Time
EST
Temp
°C
App
Temp
°C
Dew
Point
Rel
Hum
%
Delta-T
°C
Wind Press
QNH
hPa
Press
MSL
hPa
Rain
since 9 am
mm
Dir
 
Spd
km/h
Gust
km/h
Spd
kts
Gust
kts
15/11:30pm - - - - - E 37 44 20 24 - - -

Other Formats:

Comma delimited format used in spreadsheet applications
http://www.bom.gov.au/fwo/IDV60801/IDV60801.94853.axf

JavaScript Object Notation format (JSON) in row-major order
http://www.bom.gov.au/fwo/IDV60801/IDV60801.94853.json